sensor_id;sensor_type;location;lat;lon;timestamp;P1;durP1;ratioP1;P2;durP2;ratioP2
82952;SDS011;74888;40.196;44.560;2024-03-22T00:01:50;21.30;;;11.77;;
82952;SDS011;74888;40.196;44.560;2024-03-22T00:04:16;20.10;;;11.20;;
82952;SDS011;74888;40.196;44.560;2024-03-22T00:06:46;21.63;;;11.20;;
82952;SDS011;74888;40.196;44.560;2024-03-22T00:09:13;19.92;;;10.48;;
82952;SDS011;74888;40.196;44.560;2024-03-22T00:11:40;21.00;;;11.10;;
82952;SDS011;74888;40.196;44.560;2024-03-22T00:14:11;19.48;;;11.15;;
82952;SDS011;74888;40.196;44.560;2024-03-22T00:16:37;22.60;;;11.18;;
82952;SDS011;74888;40.196;44.560;2024-03-22T00:21:31;21.75;;;10.43;;
82952;SDS011;74888;40.196;44.560;2024-03-22T00:23:57;17.98;;;9.80;;
82952;SDS011;74888;40.196;44.560;2024-03-22T00:26:24;20.55;;;9.77;;
82952;SDS011;74888;40.196;44.560;2024-03-22T00:28:50;17.33;;;8.98;;
82952;SDS011;74888;40.196;44.560;2024-03-22T00:31:16;17.02;;;9.63;;
82952;SDS011;74888;40.196;44.560;2024-03-22T00:33:42;20.25;;;10.60;;
82952;SDS011;74888;40.196;44.560;2024-03-22T00:36:08;19.23;;;10.00;;
82952;SDS011;74888;40.196;44.560;2024-03-22T00:38:34;20.98;;;10.65;;
82952;SDS011;74888;40.196;44.560;2024-03-22T00:41:00;19.77;;;9.95;;
82952;SDS011;74888;40.196;44.560;2024-03-22T00:43:25;20.75;;;11.00;;
82952;SDS011;74888;40.196;44.560;2024-03-22T00:45:53;21.30;;;10.55;;
82952;SDS011;74888;40.196;44.560;2024-03-22T00:48:20;18.52;;;9.98;;
82952;SDS011;74888;40.196;44.560;2024-03-22T00:50:46;18.58;;;9.52;;
82952;SDS011;74888;40.196;44.560;2024-03-22T00:53:13;18.40;;;10.48;;
82952;SDS011;74888;40.196;44.560;2024-03-22T00:55:39;19.52;;;9.68;;
82952;SDS011;74888;40.196;44.560;2024-03-22T00:58:05;18.92;;;9.90;;
82952;SDS011;74888;40.196;44.560;2024-03-22T01:00:32;18.35;;;9.45;;
82952;SDS011;74888;40.196;44.560;2024-03-22T01:02:57;19.05;;;10.23;;
82952;SDS011;74888;40.196;44.560;2024-03-22T01:05:29;17.83;;;9.65;;
82952;SDS011;74888;40.196;44.560;2024-03-22T01:07:56;17.33;;;8.70;;
82952;SDS011;74888;40.196;44.560;2024-03-22T01:10:27;16.13;;;9.00;;
82952;SDS011;74888;40.196;44.560;2024-03-22T01:12:54;19.95;;;8.95;;
82952;SDS011;74888;40.196;44.560;2024-03-22T01:15:21;19.38;;;9.82;;
82952;SDS011;74888;40.196;44.560;2024-03-22T01:17:47;19.52;;;9.40;;
82952;SDS011;74888;40.196;44.560;2024-03-22T01:20:13;18.35;;;9.05;;
82952;SDS011;74888;40.196;44.560;2024-03-22T01:22:38;20.08;;;10.10;;
82952;SDS011;74888;40.196;44.560;2024-03-22T01:25:07;17.83;;;9.00;;
82952;SDS011;74888;40.196;44.560;2024-03-22T01:27:39;17.98;;;8.75;;
82952;SDS011;74888;40.196;44.560;2024-03-22T01:30:05;14.13;;;7.65;;
82952;SDS011;74888;40.196;44.560;2024-03-22T01:32:31;16.30;;;7.45;;
82952;SDS011;74888;40.196;44.560;2024-03-22T01:34:59;15.18;;;7.68;;
82952;SDS011;74888;40.196;44.560;2024-03-22T01:37:25;17.42;;;8.07;;
82952;SDS011;74888;40.196;44.560;2024-03-22T01:39:51;15.30;;;7.88;;
82952;SDS011;74888;40.196;44.560;2024-03-22T01:42:17;16.90;;;8.52;;
82952;SDS011;74888;40.196;44.560;2024-03-22T01:44:43;17.42;;;7.90;;
82952;SDS011;74888;40.196;44.560;2024-03-22T01:47:08;16.60;;;7.95;;
82952;SDS011;74888;40.196;44.560;2024-03-22T01:49:35;19.67;;;7.93;;
82952;SDS011;74888;40.196;44.560;2024-03-22T01:52:01;13.20;;;7.60;;
82952;SDS011;74888;40.196;44.560;2024-03-22T01:54:28;17.02;;;8.38;;
82952;SDS011;74888;40.196;44.560;2024-03-22T01:56:55;14.48;;;8.18;;
82952;SDS011;74888;40.196;44.560;2024-03-22T01:59:21;13.88;;;7.85;;
82952;SDS011;74888;40.196;44.560;2024-03-22T02:01:47;14.50;;;7.68;;
82952;SDS011;74888;40.196;44.560;2024-03-22T02:04:14;14.35;;;7.95;;
82952;SDS011;74888;40.196;44.560;2024-03-22T02:06:41;14.77;;;7.38;;
82952;SDS011;74888;40.196;44.560;2024-03-22T02:09:06;15.48;;;7.70;;
82952;SDS011;74888;40.196;44.560;2024-03-22T02:11:34;16.25;;;7.50;;
82952;SDS011;74888;40.196;44.560;2024-03-22T02:14:04;16.73;;;7.78;;
82952;SDS011;74888;40.196;44.560;2024-03-22T02:16:30;13.95;;;7.40;;
82952;SDS011;74888;40.196;44.560;2024-03-22T02:18:56;14.13;;;7.82;;
82952;SDS011;74888;40.196;44.560;2024-03-22T02:21:21;12.52;;;7.07;;
82952;SDS011;74888;40.196;44.560;2024-03-22T02:26:16;15.95;;;7.70;;
82952;SDS011;74888;40.196;44.560;2024-03-22T02:28:41;14.70;;;7.75;;
82952;SDS011;74888;40.196;44.560;2024-03-22T02:31:07;15.38;;;7.70;;
82952;SDS011;74888;40.196;44.560;2024-03-22T02:33:35;14.98;;;7.97;;
82952;SDS011;74888;40.196;44.560;2024-03-22T02:36:01;14.38;;;7.35;;
82952;SDS011;74888;40.196;44.560;2024-03-22T02:38:27;14.65;;;6.85;;
82952;SDS011;74888;40.196;44.560;2024-03-22T02:40:58;12.90;;;6.80;;
82952;SDS011;74888;40.196;44.560;2024-03-22T02:43:24;14.73;;;7.38;;
82952;SDS011;74888;40.196;44.560;2024-03-22T02:45:49;14.63;;;6.80;;
82952;SDS011;74888;40.196;44.560;2024-03-22T02:48:15;15.93;;;6.63;;
82952;SDS011;74888;40.196;44.560;2024-03-22T02:50:41;13.25;;;6.43;;
82952;SDS011;74888;40.196;44.560;2024-03-22T02:53:07;17.13;;;8.63;;
82952;SDS011;74888;40.196;44.560;2024-03-22T02:55:36;15.48;;;9.10;;
82952;SDS011;74888;40.196;44.560;2024-03-22T02:58:04;17.15;;;7.82;;
82952;SDS011;74888;40.196;44.560;2024-03-22T03:00:31;16.05;;;7.40;;
82952;SDS011;74888;40.196;44.560;2024-03-22T03:03:02;16.83;;;8.00;;
82952;SDS011;74888;40.196;44.560;2024-03-22T03:05:27;13.30;;;7.57;;
82952;SDS011;74888;40.196;44.560;2024-03-22T03:07:53;16.85;;;8.50;;
82952;SDS011;74888;40.196;44.560;2024-03-22T03:10:19;19.42;;;9.02;;
82952;SDS011;74888;40.196;44.560;2024-03-22T03:12:44;13.68;;;7.70;;
82952;SDS011;74888;40.196;44.560;2024-03-22T03:15:10;15.02;;;7.95;;
82952;SDS011;74888;40.196;44.560;2024-03-22T03:17:35;14.40;;;8.30;;
82952;SDS011;74888;40.196;44.560;2024-03-22T03:20:01;13.73;;;7.53;;
82952;SDS011;74888;40.196;44.560;2024-03-22T03:22:27;13.80;;;7.53;;
82952;SDS011;74888;40.196;44.560;2024-03-22T03:24:53;16.60;;;8.07;;
82952;SDS011;74888;40.196;44.560;2024-03-22T03:27:19;14.32;;;7.65;;
82952;SDS011;74888;40.196;44.560;2024-03-22T03:29:50;15.93;;;8.45;;
82952;SDS011;74888;40.196;44.560;2024-03-22T03:32:18;17.83;;;8.57;;
82952;SDS011;74888;40.196;44.560;2024-03-22T03:34:44;14.30;;;8.23;;
82952;SDS011;74888;40.196;44.560;2024-03-22T03:37:09;20.23;;;9.82;;
82952;SDS011;74888;40.196;44.560;2024-03-22T03:39:35;14.30;;;8.05;;
82952;SDS011;74888;40.196;44.560;2024-03-22T03:42:05;18.98;;;9.82;;
82952;SDS011;74888;40.196;44.560;2024-03-22T03:44:32;18.13;;;10.05;;
82952;SDS011;74888;40.196;44.560;2024-03-22T03:47:00;17.52;;;9.60;;
82952;SDS011;74888;40.196;44.560;2024-03-22T03:49:26;17.73;;;9.77;;
82952;SDS011;74888;40.196;44.560;2024-03-22T03:51:52;20.35;;;9.98;;
82952;SDS011;74888;40.196;44.560;2024-03-22T03:54:18;19.55;;;10.02;;
82952;SDS011;74888;40.196;44.560;2024-03-22T03:56:45;19.63;;;10.48;;
82952;SDS011;74888;40.196;44.560;2024-03-22T03:59:11;18.63;;;9.82;;
82952;SDS011;74888;40.196;44.560;2024-03-22T04:01:37;20.73;;;10.45;;
82952;SDS011;74888;40.196;44.560;2024-03-22T04:04:03;17.73;;;9.52;;
82952;SDS011;74888;40.196;44.560;2024-03-22T04:06:29;18.40;;;9.68;;
82952;SDS011;74888;40.196;44.560;2024-03-22T04:08:55;19.02;;;10.23;;
82952;SDS011;74888;40.196;44.560;2024-03-22T04:11:26;19.80;;;9.93;;
82952;SDS011;74888;40.196;44.560;2024-03-22T04:13:53;21.88;;;10.43;;
82952;SDS011;74888;40.196;44.560;2024-03-22T04:16:21;16.60;;;9.48;;
82952;SDS011;74888;40.196;44.560;2024-03-22T04:18:46;19.48;;;10.05;;
82952;SDS011;74888;40.196;44.560;2024-03-22T04:21:13;24.60;;;10.25;;
82952;SDS011;74888;40.196;44.560;2024-03-22T04:23:39;14.90;;;8.88;;
82952;SDS011;74888;40.196;44.560;2024-03-22T04:26:06;17.08;;;8.88;;
82952;SDS011;74888;40.196;44.560;2024-03-22T04:28:34;18.83;;;9.35;;
82952;SDS011;74888;40.196;44.560;2024-03-22T04:31:06;18.52;;;9.75;;
82952;SDS011;74888;40.196;44.560;2024-03-22T04:33:36;18.65;;;9.80;;
82952;SDS011;74888;40.196;44.560;2024-03-22T04:36:02;17.13;;;9.57;;
82952;SDS011;74888;40.196;44.560;2024-03-22T04:38:29;18.98;;;9.77;;
82952;SDS011;74888;40.196;44.560;2024-03-22T04:40:57;16.38;;;9.68;;
82952;SDS011;74888;40.196;44.560;2024-03-22T04:43:23;20.90;;;10.65;;
82952;SDS011;74888;40.196;44.560;2024-03-22T04:45:49;19.35;;;10.45;;
82952;SDS011;74888;40.196;44.560;2024-03-22T04:48:22;21.38;;;11.75;;
82952;SDS011;74888;40.196;44.560;2024-03-22T04:50:49;58.38;;;25.13;;
82952;SDS011;74888;40.196;44.560;2024-03-22T04:53:21;47.55;;;23.45;;
82952;SDS011;74888;40.196;44.560;2024-03-22T04:58:20;18.70;;;11.20;;
82952;SDS011;74888;40.196;44.560;2024-03-22T05:00:49;19.15;;;10.88;;
82952;SDS011;74888;40.196;44.560;2024-03-22T05:03:15;23.25;;;11.93;;
82952;SDS011;74888;40.196;44.560;2024-03-22T05:05:41;26.50;;;14.45;;
82952;SDS011;74888;40.196;44.560;2024-03-22T05:08:08;25.85;;;13.27;;
82952;SDS011;74888;40.196;44.560;2024-03-22T05:10:34;21.52;;;12.93;;
82952;SDS011;74888;40.196;44.560;2024-03-22T05:13:00;87.63;;;38.00;;
82952;SDS011;74888;40.196;44.560;2024-03-22T05:15:26;44.30;;;22.63;;
82952;SDS011;74888;40.196;44.560;2024-03-22T05:17:52;35.53;;;18.20;;
82952;SDS011;74888;40.196;44.560;2024-03-22T05:20:20;23.10;;;12.57;;
82952;SDS011;74888;40.196;44.560;2024-03-22T05:22:46;16.42;;;9.93;;
82952;SDS011;74888;40.196;44.560;2024-03-22T05:25:12;19.95;;;10.98;;
82952;SDS011;74888;40.196;44.560;2024-03-22T05:27:40;20.63;;;10.68;;
82952;SDS011;74888;40.196;44.560;2024-03-22T05:30:10;19.05;;;10.23;;
82952;SDS011;74888;40.196;44.560;2024-03-22T05:32:36;24.83;;;13.63;;
82952;SDS011;74888;40.196;44.560;2024-03-22T05:35:02;23.17;;;12.73;;
82952;SDS011;74888;40.196;44.560;2024-03-22T05:37:34;24.83;;;12.95;;
82952;SDS011;74888;40.196;44.560;2024-03-22T05:40:03;24.92;;;12.65;;
82952;SDS011;74888;40.196;44.560;2024-03-22T05:42:32;26.08;;;12.63;;
82952;SDS011;74888;40.196;44.560;2024-03-22T05:47:33;22.33;;;11.63;;
82952;SDS011;74888;40.196;44.560;2024-03-22T05:50:00;21.13;;;11.57;;
82952;SDS011;74888;40.196;44.560;2024-03-22T05:52:26;30.33;;;19.95;;
82952;SDS011;74888;40.196;44.560;2024-03-22T05:54:52;25.50;;;12.48;;
82952;SDS011;74888;40.196;44.560;2024-03-22T05:57:18;21.40;;;11.75;;
82952;SDS011;74888;40.196;44.560;2024-03-22T05:59:43;27.27;;;13.68;;
82952;SDS011;74888;40.196;44.560;2024-03-22T06:02:09;26.42;;;12.07;;
82952;SDS011;74888;40.196;44.560;2024-03-22T06:04:35;44.67;;;12.60;;
82952;SDS011;74888;40.196;44.560;2024-03-22T06:07:01;19.05;;;10.77;;
82952;SDS011;74888;40.196;44.560;2024-03-22T06:09:29;20.65;;;11.40;;
82952;SDS011;74888;40.196;44.560;2024-03-22T06:12:13;23.63;;;11.13;;
82952;SDS011;74888;40.196;44.560;2024-03-22T06:14:42;22.95;;;12.23;;
82952;SDS011;74888;40.196;44.560;2024-03-22T06:17:09;29.95;;;12.65;;
82952;SDS011;74888;40.196;44.560;2024-03-22T06:19:35;24.45;;;10.75;;
82952;SDS011;74888;40.196;44.560;2024-03-22T06:22:02;21.55;;;10.40;;
82952;SDS011;74888;40.196;44.560;2024-03-22T06:24:28;20.50;;;10.85;;
82952;SDS011;74888;40.196;44.560;2024-03-22T06:26:54;41.83;;;18.85;;
82952;SDS011;74888;40.196;44.560;2024-03-22T06:29:19;24.50;;;12.18;;
82952;SDS011;74888;40.196;44.560;2024-03-22T06:31:45;21.67;;;10.60;;
82952;SDS011;74888;40.196;44.560;2024-03-22T06:34:12;24.83;;;9.95;;
82952;SDS011;74888;40.196;44.560;2024-03-22T06:36:37;21.42;;;10.45;;
82952;SDS011;74888;40.196;44.560;2024-03-22T06:39:03;20.95;;;10.00;;
82952;SDS011;74888;40.196;44.560;2024-03-22T06:41:32;20.05;;;8.70;;
82952;SDS011;74888;40.196;44.560;2024-03-22T06:43:58;24.83;;;11.65;;
82952;SDS011;74888;40.196;44.560;2024-03-22T06:46:23;16.35;;;8.88;;
82952;SDS011;74888;40.196;44.560;2024-03-22T06:48:51;17.00;;;9.10;;
82952;SDS011;74888;40.196;44.560;2024-03-22T06:51:18;18.48;;;9.45;;
82952;SDS011;74888;40.196;44.560;2024-03-22T06:53:43;13.63;;;7.50;;
82952;SDS011;74888;40.196;44.560;2024-03-22T06:56:10;17.73;;;8.68;;
82952;SDS011;74888;40.196;44.560;2024-03-22T06:58:39;13.30;;;8.02;;
82952;SDS011;74888;40.196;44.560;2024-03-22T07:01:05;21.10;;;9.80;;
82952;SDS011;74888;40.196;44.560;2024-03-22T07:03:31;14.82;;;8.27;;
82952;SDS011;74888;40.196;44.560;2024-03-22T07:05:57;15.63;;;8.48;;
82952;SDS011;74888;40.196;44.560;2024-03-22T07:08:23;13.90;;;7.82;;
82952;SDS011;74888;40.196;44.560;2024-03-22T07:10:50;21.05;;;12.88;;
82952;SDS011;74888;40.196;44.560;2024-03-22T07:13:18;14.45;;;8.68;;
82952;SDS011;74888;40.196;44.560;2024-03-22T07:15:47;11.10;;;5.88;;
82952;SDS011;74888;40.196;44.560;2024-03-22T07:18:13;10.05;;;5.50;;
82952;SDS011;74888;40.196;44.560;2024-03-22T07:20:39;9.07;;;4.90;;
82952;SDS011;74888;40.196;44.560;2024-03-22T07:23:06;8.93;;;4.80;;
82952;SDS011;74888;40.196;44.560;2024-03-22T07:25:34;9.45;;;4.95;;
82952;SDS011;74888;40.196;44.560;2024-03-22T07:27:59;7.97;;;4.80;;
82952;SDS011;74888;40.196;44.560;2024-03-22T07:30:25;11.30;;;5.93;;
82952;SDS011;74888;40.196;44.560;2024-03-22T07:32:54;8.40;;;4.93;;
82952;SDS011;74888;40.196;44.560;2024-03-22T07:35:20;8.85;;;4.95;;
82952;SDS011;74888;40.196;44.560;2024-03-22T07:37:47;9.65;;;5.20;;
82952;SDS011;74888;40.196;44.560;2024-03-22T07:40:13;10.73;;;5.40;;
82952;SDS011;74888;40.196;44.560;2024-03-22T07:42:39;9.32;;;4.70;;
82952;SDS011;74888;40.196;44.560;2024-03-22T07:45:04;8.18;;;5.07;;
82952;SDS011;74888;40.196;44.560;2024-03-22T07:47:30;8.88;;;5.32;;
82952;SDS011;74888;40.196;44.560;2024-03-22T07:49:56;9.30;;;5.05;;
82952;SDS011;74888;40.196;44.560;2024-03-22T07:52:21;10.05;;;5.57;;
82952;SDS011;74888;40.196;44.560;2024-03-22T07:54:47;12.05;;;5.63;;
82952;SDS011;74888;40.196;44.560;2024-03-22T07:57:14;9.18;;;4.90;;
82952;SDS011;74888;40.196;44.560;2024-03-22T07:59:39;9.13;;;4.43;;
82952;SDS011;74888;40.196;44.560;2024-03-22T08:02:05;9.00;;;5.32;;
82952;SDS011;74888;40.196;44.560;2024-03-22T08:04:31;8.15;;;4.80;;
82952;SDS011;74888;40.196;44.560;2024-03-22T08:06:56;9.38;;;4.57;;
82952;SDS011;74888;40.196;44.560;2024-03-22T08:09:22;14.80;;;6.85;;
82952;SDS011;74888;40.196;44.560;2024-03-22T08:11:51;10.13;;;5.70;;
82952;SDS011;74888;40.196;44.560;2024-03-22T08:14:18;10.95;;;6.00;;
82952;SDS011;74888;40.196;44.560;2024-03-22T08:16:43;11.00;;;5.75;;
82952;SDS011;74888;40.196;44.560;2024-03-22T08:19:09;9.05;;;5.43;;
82952;SDS011;74888;40.196;44.560;2024-03-22T08:21:35;10.02;;;5.53;;
82952;SDS011;74888;40.196;44.560;2024-03-22T08:24:01;10.80;;;6.32;;
82952;SDS011;74888;40.196;44.560;2024-03-22T08:26:28;11.98;;;6.78;;
82952;SDS011;74888;40.196;44.560;2024-03-22T08:28:53;12.77;;;6.40;;
82952;SDS011;74888;40.196;44.560;2024-03-22T08:31:19;10.52;;;6.07;;
82952;SDS011;74888;40.196;44.560;2024-03-22T08:33:50;10.13;;;5.63;;
82952;SDS011;74888;40.196;44.560;2024-03-22T08:36:17;9.18;;;5.03;;
82952;SDS011;74888;40.196;44.560;2024-03-22T08:38:44;11.32;;;6.85;;
82952;SDS011;74888;40.196;44.560;2024-03-22T08:41:09;17.05;;;9.70;;
82952;SDS011;74888;40.196;44.560;2024-03-22T08:43:35;16.77;;;10.07;;
82952;SDS011;74888;40.196;44.560;2024-03-22T08:46:00;15.68;;;8.90;;
82952;SDS011;74888;40.196;44.560;2024-03-22T08:48:26;15.95;;;9.13;;
82952;SDS011;74888;40.196;44.560;2024-03-22T08:50:53;22.15;;;9.07;;
82952;SDS011;74888;40.196;44.560;2024-03-22T08:53:19;15.15;;;9.63;;
82952;SDS011;74888;40.196;44.560;2024-03-22T08:55:47;18.90;;;9.95;;
82952;SDS011;74888;40.196;44.560;2024-03-22T08:58:14;19.92;;;10.27;;
82952;SDS011;74888;40.196;44.560;2024-03-22T09:00:41;21.70;;;10.35;;
82952;SDS011;74888;40.196;44.560;2024-03-22T09:03:09;17.48;;;9.40;;
82952;SDS011;74888;40.196;44.560;2024-03-22T09:05:36;16.85;;;9.88;;
82952;SDS011;74888;40.196;44.560;2024-03-22T09:08:02;22.38;;;10.75;;
82952;SDS011;74888;40.196;44.560;2024-03-22T09:10:30;20.65;;;9.93;;
82952;SDS011;74888;40.196;44.560;2024-03-22T09:12:57;20.50;;;10.52;;
82952;SDS011;74888;40.196;44.560;2024-03-22T09:15:24;18.88;;;9.00;;
82952;SDS011;74888;40.196;44.560;2024-03-22T09:17:51;18.38;;;10.15;;
82952;SDS011;74888;40.196;44.560;2024-03-22T09:20:17;16.42;;;9.80;;
82952;SDS011;74888;40.196;44.560;2024-03-22T09:22:44;24.67;;;13.30;;
82952;SDS011;74888;40.196;44.560;2024-03-22T09:25:10;21.08;;;11.43;;
82952;SDS011;74888;40.196;44.560;2024-03-22T09:27:37;21.80;;;10.88;;
82952;SDS011;74888;40.196;44.560;2024-03-22T09:30:04;19.55;;;10.63;;
82952;SDS011;74888;40.196;44.560;2024-03-22T09:32:31;23.23;;;9.95;;
82952;SDS011;74888;40.196;44.560;2024-03-22T09:34:57;19.75;;;10.10;;
82952;SDS011;74888;40.196;44.560;2024-03-22T09:37:23;17.77;;;9.38;;
82952;SDS011;74888;40.196;44.560;2024-03-22T09:39:51;19.55;;;9.30;;
82952;SDS011;74888;40.196;44.560;2024-03-22T09:42:17;33.20;;;16.00;;
82952;SDS011;74888;40.196;44.560;2024-03-22T09:44:48;20.00;;;9.75;;
82952;SDS011;74888;40.196;44.560;2024-03-22T09:47:16;19.17;;;8.82;;
82952;SDS011;74888;40.196;44.560;2024-03-22T09:49:42;19.55;;;10.35;;
82952;SDS011;74888;40.196;44.560;2024-03-22T09:52:14;21.77;;;11.50;;
82952;SDS011;74888;40.196;44.560;2024-03-22T09:54:44;20.95;;;10.57;;
82952;SDS011;74888;40.196;44.560;2024-03-22T10:02:10;15.13;;;8.43;;
82952;SDS011;74888;40.196;44.560;2024-03-22T10:04:38;21.45;;;10.20;;
82952;SDS011;74888;40.196;44.560;2024-03-22T10:07:05;23.15;;;11.45;;
82952;SDS011;74888;40.196;44.560;2024-03-22T10:09:31;21.17;;;11.68;;
82952;SDS011;74888;40.196;44.560;2024-03-22T10:11:58;21.60;;;10.73;;
82952;SDS011;74888;40.196;44.560;2024-03-22T10:14:24;18.98;;;8.55;;
82952;SDS011;74888;40.196;44.560;2024-03-22T10:16:52;15.70;;;9.45;;
82952;SDS011;74888;40.196;44.560;2024-03-22T10:19:22;18.48;;;9.75;;
82952;SDS011;74888;40.196;44.560;2024-03-22T10:22:00;21.55;;;9.60;;
82952;SDS011;74888;40.196;44.560;2024-03-22T10:24:27;22.40;;;11.65;;
82952;SDS011;74888;40.196;44.560;2024-03-22T10:26:56;21.15;;;9.95;;
82952;SDS011;74888;40.196;44.560;2024-03-22T10:29:21;17.98;;;9.38;;
82952;SDS011;74888;40.196;44.560;2024-03-22T10:31:50;14.18;;;8.43;;
82952;SDS011;74888;40.196;44.560;2024-03-22T10:34:18;16.23;;;9.43;;
82952;SDS011;74888;40.196;44.560;2024-03-22T10:36:46;16.63;;;9.48;;
82952;SDS011;74888;40.196;44.560;2024-03-22T10:39:13;20.92;;;10.90;;
82952;SDS011;74888;40.196;44.560;2024-03-22T10:41:48;27.77;;;13.77;;
82952;SDS011;74888;40.196;44.560;2024-03-22T10:44:17;25.95;;;11.48;;
82952;SDS011;74888;40.196;44.560;2024-03-22T10:46:46;11.50;;;6.50;;
82952;SDS011;74888;40.196;44.560;2024-03-22T10:49:17;14.25;;;7.72;;
82952;SDS011;74888;40.196;44.560;2024-03-22T10:52:06;14.93;;;7.53;;
82952;SDS011;74888;40.196;44.560;2024-03-22T10:54:51;13.43;;;7.85;;
82952;SDS011;74888;40.196;44.560;2024-03-22T10:57:17;7.93;;;5.10;;
82952;SDS011;74888;40.196;44.560;2024-03-22T10:59:46;12.35;;;7.50;;
82952;SDS011;74888;40.196;44.560;2024-03-22T11:02:11;10.10;;;5.85;;
82952;SDS011;74888;40.196;44.560;2024-03-22T11:04:37;12.85;;;5.80;;
82952;SDS011;74888;40.196;44.560;2024-03-22T11:07:03;14.73;;;6.97;;
82952;SDS011;74888;40.196;44.560;2024-03-22T11:09:29;12.02;;;7.15;;
82952;SDS011;74888;40.196;44.560;2024-03-22T11:11:55;14.65;;;6.55;;
82952;SDS011;74888;40.196;44.560;2024-03-22T11:14:28;12.32;;;6.07;;
82952;SDS011;74888;40.196;44.560;2024-03-22T11:16:54;17.55;;;7.57;;
82952;SDS011;74888;40.196;44.560;2024-03-22T11:19:20;13.55;;;8.38;;
82952;SDS011;74888;40.196;44.560;2024-03-22T11:21:46;14.85;;;6.93;;
82952;SDS011;74888;40.196;44.560;2024-03-22T11:24:13;16.38;;;8.23;;
82952;SDS011;74888;40.196;44.560;2024-03-22T11:26:40;18.90;;;9.52;;
82952;SDS011;74888;40.196;44.560;2024-03-22T11:29:06;19.67;;;8.13;;
82952;SDS011;74888;40.196;44.560;2024-03-22T11:31:33;21.33;;;10.43;;
82952;SDS011;74888;40.196;44.560;2024-03-22T11:33:59;17.90;;;8.80;;
82952;SDS011;74888;40.196;44.560;2024-03-22T11:36:25;17.00;;;8.80;;
82952;SDS011;74888;40.196;44.560;2024-03-22T11:38:52;19.95;;;9.45;;
82952;SDS011;74888;40.196;44.560;2024-03-22T11:41:20;19.67;;;9.30;;
82952;SDS011;74888;40.196;44.560;2024-03-22T11:46:20;16.80;;;9.80;;
82952;SDS011;74888;40.196;44.560;2024-03-22T11:48:50;20.73;;;9.98;;
82952;SDS011;74888;40.196;44.560;2024-03-22T11:51:17;26.13;;;13.52;;
82952;SDS011;74888;40.196;44.560;2024-03-22T11:53:51;24.27;;;12.05;;
82952;SDS011;74888;40.196;44.560;2024-03-22T11:56:22;28.30;;;15.88;;
82952;SDS011;74888;40.196;44.560;2024-03-22T11:58:57;19.92;;;11.70;;
82952;SDS011;74888;40.196;44.560;2024-03-22T12:01:24;19.98;;;10.85;;
82952;SDS011;74888;40.196;44.560;2024-03-22T12:03:50;19.95;;;8.75;;
82952;SDS011;74888;40.196;44.560;2024-03-22T12:06:16;12.55;;;5.43;;
82952;SDS011;74888;40.196;44.560;2024-03-22T12:08:42;15.73;;;6.88;;
82952;SDS011;74888;40.196;44.560;2024-03-22T12:11:08;15.73;;;8.57;;
82952;SDS011;74888;40.196;44.560;2024-03-22T12:13:34;10.63;;;6.78;;
82952;SDS011;74888;40.196;44.560;2024-03-22T12:16:00;14.50;;;7.38;;
82952;SDS011;74888;40.196;44.560;2024-03-22T12:18:29;13.43;;;6.72;;
82952;SDS011;74888;40.196;44.560;2024-03-22T12:20:56;13.63;;;6.75;;
82952;SDS011;74888;40.196;44.560;2024-03-22T12:23:22;11.20;;;6.05;;
82952;SDS011;74888;40.196;44.560;2024-03-22T12:25:49;12.32;;;5.50;;
82952;SDS011;74888;40.196;44.560;2024-03-22T12:28:18;13.30;;;5.05;;
82952;SDS011;74888;40.196;44.560;2024-03-22T12:30:44;11.52;;;5.80;;
82952;SDS011;74888;40.196;44.560;2024-03-22T12:33:11;14.15;;;6.60;;
82952;SDS011;74888;40.196;44.560;2024-03-22T12:35:40;12.35;;;5.90;;
82952;SDS011;74888;40.196;44.560;2024-03-22T12:38:09;15.65;;;6.57;;
82952;SDS011;74888;40.196;44.560;2024-03-22T12:40:40;14.82;;;7.13;;
82952;SDS011;74888;40.196;44.560;2024-03-22T12:43:06;12.05;;;6.68;;
82952;SDS011;74888;40.196;44.560;2024-03-22T12:45:34;14.82;;;6.28;;
82952;SDS011;74888;40.196;44.560;2024-03-22T12:48:00;12.07;;;6.22;;
82952;SDS011;74888;40.196;44.560;2024-03-22T12:50:26;11.73;;;6.70;;
82952;SDS011;74888;40.196;44.560;2024-03-22T12:52:55;12.82;;;7.35;;
82952;SDS011;74888;40.196;44.560;2024-03-22T12:55:21;15.55;;;7.97;;
82952;SDS011;74888;40.196;44.560;2024-03-22T12:57:47;19.25;;;7.85;;
82952;SDS011;74888;40.196;44.560;2024-03-22T13:00:13;16.33;;;6.20;;
82952;SDS011;74888;40.196;44.560;2024-03-22T13:02:44;15.48;;;5.47;;
82952;SDS011;74888;40.196;44.560;2024-03-22T13:05:12;11.05;;;5.80;;
82952;SDS011;74888;40.196;44.560;2024-03-22T13:07:40;11.18;;;5.05;;
82952;SDS011;74888;40.196;44.560;2024-03-22T13:10:07;12.35;;;5.20;;
82952;SDS011;74888;40.196;44.560;2024-03-22T13:12:35;11.05;;;5.10;;
82952;SDS011;74888;40.196;44.560;2024-03-22T13:15:04;13.45;;;5.85;;
82952;SDS011;74888;40.196;44.560;2024-03-22T13:17:31;10.00;;;5.13;;
82952;SDS011;74888;40.196;44.560;2024-03-22T13:19:59;9.15;;;4.25;;
82952;SDS011;74888;40.196;44.560;2024-03-22T13:22:27;12.35;;;5.03;;
82952;SDS011;74888;40.196;44.560;2024-03-22T13:24:53;10.27;;;5.10;;
82952;SDS011;74888;40.196;44.560;2024-03-22T13:27:20;10.60;;;5.70;;
82952;SDS011;74888;40.196;44.560;2024-03-22T13:29:47;8.93;;;4.68;;
82952;SDS011;74888;40.196;44.560;2024-03-22T13:32:13;9.98;;;4.68;;
82952;SDS011;74888;40.196;44.560;2024-03-22T13:34:39;18.67;;;8.10;;
82952;SDS011;74888;40.196;44.560;2024-03-22T13:37:08;12.05;;;6.82;;
82952;SDS011;74888;40.196;44.560;2024-03-22T13:39:33;18.30;;;8.15;;
82952;SDS011;74888;40.196;44.560;2024-03-22T13:42:02;20.83;;;9.57;;
82952;SDS011;74888;40.196;44.560;2024-03-22T13:44:28;29.30;;;13.20;;
82952;SDS011;74888;40.196;44.560;2024-03-22T13:46:54;27.38;;;14.57;;
82952;SDS011;74888;40.196;44.560;2024-03-22T13:49:20;22.95;;;13.05;;
82952;SDS011;74888;40.196;44.560;2024-03-22T13:51:48;23.02;;;11.88;;
82952;SDS011;74888;40.196;44.560;2024-03-22T13:54:13;21.15;;;11.75;;
82952;SDS011;74888;40.196;44.560;2024-03-22T13:56:39;20.40;;;10.98;;
82952;SDS011;74888;40.196;44.560;2024-03-22T13:59:05;18.38;;;10.60;;
82952;SDS011;74888;40.196;44.560;2024-03-22T14:01:33;25.10;;;13.13;;
82952;SDS011;74888;40.196;44.560;2024-03-22T14:03:58;21.40;;;12.32;;
82952;SDS011;74888;40.196;44.560;2024-03-22T14:06:24;20.30;;;11.65;;
82952;SDS011;74888;40.196;44.560;2024-03-22T14:08:51;16.27;;;8.18;;
82952;SDS011;74888;40.196;44.560;2024-03-22T14:11:20;13.13;;;6.53;;
82952;SDS011;74888;40.196;44.560;2024-03-22T14:13:45;14.70;;;6.85;;
82952;SDS011;74888;40.196;44.560;2024-03-22T14:16:13;14.75;;;3.55;;
82952;SDS011;74888;40.196;44.560;2024-03-22T14:18:39;9.85;;;3.75;;
82952;SDS011;74888;40.196;44.560;2024-03-22T14:21:05;8.70;;;3.65;;
82952;SDS011;74888;40.196;44.560;2024-03-22T14:23:32;7.35;;;3.30;;
82952;SDS011;74888;40.196;44.560;2024-03-22T14:25:58;7.63;;;3.47;;
82952;SDS011;74888;40.196;44.560;2024-03-22T14:28:24;7.95;;;2.40;;
82952;SDS011;74888;40.196;44.560;2024-03-22T14:30:49;5.97;;;1.98;;
82952;SDS011;74888;40.196;44.560;2024-03-22T14:33:15;7.93;;;2.50;;
82952;SDS011;74888;40.196;44.560;2024-03-22T14:35:42;5.60;;;2.70;;